sensor_id;sensor_type;location;lat;lon;timestamp;temperature;humidity
80577;DHT22;69937;52.420;10.538;2024-03-25T00:04:30;4.90;79.90
80577;DHT22;69937;52.420;10.538;2024-03-25T00:09:30;4.90;78.70
80577;DHT22;69937;52.420;10.538;2024-03-25T00:14:31;4.70;79.10
80577;DHT22;69937;52.420;10.538;2024-03-25T00:19:32;4.70;79.10
80577;DHT22;69937;52.420;10.538;2024-03-25T00:24:33;4.60;79.40
80577;DHT22;69937;52.420;10.538;2024-03-25T00:29:33;4.50;80.30
80577;DHT22;69937;52.420;10.538;2024-03-25T00:34:34;4.50;80.80
80577;DHT22;69937;52.420;10.538;2024-03-25T00:39:35;4.60;80.70
80577;DHT22;69937;52.420;10.538;2024-03-25T00:44:35;4.60;80.50
80577;DHT22;69937;52.420;10.538;2024-03-25T00:49:36;4.60;79.80
80577;DHT22;69937;52.420;10.538;2024-03-25T00:54:36;4.70;79.50
80577;DHT22;69937;52.420;10.538;2024-03-25T00:59:37;4.70;79.60
80577;DHT22;69937;52.420;10.538;2024-03-25T01:04:38;4.60;80.00
80577;DHT22;69937;52.420;10.538;2024-03-25T01:09:38;4.60;80.30
80577;DHT22;69937;52.420;10.538;2024-03-25T01:14:39;4.70;80.20
80577;DHT22;69937;52.420;10.538;2024-03-25T01:19:39;4.70;80.30
80577;DHT22;69937;52.420;10.538;2024-03-25T01:24:40;4.70;80.10
80577;DHT22;69937;52.420;10.538;2024-03-25T01:29:41;4.70;79.70
80577;DHT22;69937;52.420;10.538;2024-03-25T01:34:41;4.70;79.80
80577;DHT22;69937;52.420;10.538;2024-03-25T01:39:42;4.70;79.80
80577;DHT22;69937;52.420;10.538;2024-03-25T01:44:42;4.70;80.00
80577;DHT22;69937;52.420;10.538;2024-03-25T01:49:43;4.70;80.30
80577;DHT22;69937;52.420;10.538;2024-03-25T01:54:44;4.70;80.20
80577;DHT22;69937;52.420;10.538;2024-03-25T01:59:45;4.70;80.10
80577;DHT22;69937;52.420;10.538;2024-03-25T02:04:45;4.60;79.80
80577;DHT22;69937;52.420;10.538;2024-03-25T02:09:47;4.60;79.80
80577;DHT22;69937;52.420;10.538;2024-03-25T02:14:48;4.60;79.80
80577;DHT22;69937;52.420;10.538;2024-03-25T02:19:49;4.60;80.00
80577;DHT22;69937;52.420;10.538;2024-03-25T02:24:53;4.60;79.80
80577;DHT22;69937;52.420;10.538;2024-03-25T02:29:56;4.60;79.70
80577;DHT22;69937;52.420;10.538;2024-03-25T02:35:07;4.70;78.70
80577;DHT22;69937;52.420;10.538;2024-03-25T02:40:09;4.70;78.50
80577;DHT22;69937;52.420;10.538;2024-03-25T02:45:10;4.70;78.40
80577;DHT22;69937;52.420;10.538;2024-03-25T02:50:11;4.70;78.20
80577;DHT22;69937;52.420;10.538;2024-03-25T02:55:11;4.70;78.50
80577;DHT22;69937;52.420;10.538;2024-03-25T03:00:12;4.70;78.40
80577;DHT22;69937;52.420;10.538;2024-03-25T03:05:13;4.70;77.80
80577;DHT22;69937;52.420;10.538;2024-03-25T03:10:14;4.70;78.10
80577;DHT22;69937;52.420;10.538;2024-03-25T03:15:16;4.70;78.00
80577;DHT22;69937;52.420;10.538;2024-03-25T03:20:16;4.70;78.10
80577;DHT22;69937;52.420;10.538;2024-03-25T03:25:17;4.70;78.20
80577;DHT22;69937;52.420;10.538;2024-03-25T03:30:18;4.60;78.40
80577;DHT22;69937;52.420;10.538;2024-03-25T03:35:18;4.60;78.70
80577;DHT22;69937;52.420;10.538;2024-03-25T03:40:19;4.60;79.00
80577;DHT22;69937;52.420;10.538;2024-03-25T03:45:19;4.70;79.40
80577;DHT22;69937;52.420;10.538;2024-03-25T03:50:20;4.60;79.50
80577;DHT22;69937;52.420;10.538;2024-03-25T03:55:20;4.70;79.20
80577;DHT22;69937;52.420;10.538;2024-03-25T04:00:21;4.70;79.00
80577;DHT22;69937;52.420;10.538;2024-03-25T04:05:22;4.70;79.10
80577;DHT22;69937;52.420;10.538;2024-03-25T04:10:23;4.70;79.10
80577;DHT22;69937;52.420;10.538;2024-03-25T04:15:24;4.70;78.80
80577;DHT22;69937;52.420;10.538;2024-03-25T04:20:27;4.70;78.50
80577;DHT22;69937;52.420;10.538;2024-03-25T04:25:28;4.70;78.50
80577;DHT22;69937;52.420;10.538;2024-03-25T04:30:29;4.70;78.20
80577;DHT22;69937;52.420;10.538;2024-03-25T04:35:30;4.70;78.00
80577;DHT22;69937;52.420;10.538;2024-03-25T04:40:30;4.70;78.10
80577;DHT22;69937;52.420;10.538;2024-03-25T04:45:31;4.70;77.90
80577;DHT22;69937;52.420;10.538;2024-03-25T04:50:31;4.70;77.90
80577;DHT22;69937;52.420;10.538;2024-03-25T04:55:32;4.70;77.90
80577;DHT22;69937;52.420;10.538;2024-03-25T05:00:32;4.70;77.90
80577;DHT22;69937;52.420;10.538;2024-03-25T05:05:33;4.60;77.80
80577;DHT22;69937;52.420;10.538;2024-03-25T05:10:34;4.60;78.00
80577;DHT22;69937;52.420;10.538;2024-03-25T05:15:34;4.60;78.00
80577;DHT22;69937;52.420;10.538;2024-03-25T05:20:35;4.50;78.20
80577;DHT22;69937;52.420;10.538;2024-03-25T05:25:36;4.50;78.10
80577;DHT22;69937;52.420;10.538;2024-03-25T05:30:36;4.40;78.20
80577;DHT22;69937;52.420;10.538;2024-03-25T05:35:37;4.30;78.40
80577;DHT22;69937;52.420;10.538;2024-03-25T05:40:38;4.30;78.60
80577;DHT22;69937;52.420;10.538;2024-03-25T05:45:38;4.30;78.70
80577;DHT22;69937;52.420;10.538;2024-03-25T05:50:39;4.30;78.90
80577;DHT22;69937;52.420;10.538;2024-03-25T05:55:39;4.40;78.80
80577;DHT22;69937;52.420;10.538;2024-03-25T06:00:40;4.50;78.90
80577;DHT22;69937;52.420;10.538;2024-03-25T06:05:42;4.50;78.80
80577;DHT22;69937;52.420;10.538;2024-03-25T06:10:42;4.60;78.50
80577;DHT22;69937;52.420;10.538;2024-03-25T06:15:43;4.70;78.40
80577;DHT22;69937;52.420;10.538;2024-03-25T06:20:43;4.70;78.30
80577;DHT22;69937;52.420;10.538;2024-03-25T06:25:44;4.70;78.10
80577;DHT22;69937;52.420;10.538;2024-03-25T06:30:45;4.90;78.00
80577;DHT22;69937;52.420;10.538;2024-03-25T06:36:05;4.90;77.80
80577;DHT22;69937;52.420;10.538;2024-03-25T06:41:05;5.00;77.70
80577;DHT22;69937;52.420;10.538;2024-03-25T06:46:06;5.10;77.50
80577;DHT22;69937;52.420;10.538;2024-03-25T06:51:07;5.10;77.00
80577;DHT22;69937;52.420;10.538;2024-03-25T06:56:07;5.30;76.80
80577;DHT22;69937;52.420;10.538;2024-03-25T07:01:09;5.30;76.80
80577;DHT22;69937;52.420;10.538;2024-03-25T07:06:09;5.50;76.50
80577;DHT22;69937;52.420;10.538;2024-03-25T07:11:10;5.50;76.00
80577;DHT22;69937;52.420;10.538;2024-03-25T07:16:10;5.50;76.10
80577;DHT22;69937;52.420;10.538;2024-03-25T07:21:11;5.50;76.30
80577;DHT22;69937;52.420;10.538;2024-03-25T07:26:12;5.50;76.40
80577;DHT22;69937;52.420;10.538;2024-03-25T07:31:12;5.50;76.50
80577;DHT22;69937;52.420;10.538;2024-03-25T07:36:13;5.50;76.40
80577;DHT22;69937;52.420;10.538;2024-03-25T07:41:13;5.50;76.30
80577;DHT22;69937;52.420;10.538;2024-03-25T07:46:14;5.60;76.20
80577;DHT22;69937;52.420;10.538;2024-03-25T07:51:14;5.60;76.80
80577;DHT22;69937;52.420;10.538;2024-03-25T07:56:15;5.60;76.70
80577;DHT22;69937;52.420;10.538;2024-03-25T08:01:16;5.70;76.60
80577;DHT22;69937;52.420;10.538;2024-03-25T08:06:16;5.80;75.90
80577;DHT22;69937;52.420;10.538;2024-03-25T08:11:17;5.90;75.20
80577;DHT22;69937;52.420;10.538;2024-03-25T08:16:17;6.10;74.90
80577;DHT22;69937;52.420;10.538;2024-03-25T08:21:20;6.30;73.90
80577;DHT22;69937;52.420;10.538;2024-03-25T08:26:20;6.30;72.90
80577;DHT22;69937;52.420;10.538;2024-03-25T08:31:21;6.30;72.70
80577;DHT22;69937;52.420;10.538;2024-03-25T08:36:22;6.40;72.20
80577;DHT22;69937;52.420;10.538;2024-03-25T08:41:22;6.50;71.60
80577;DHT22;69937;52.420;10.538;2024-03-25T08:46:23;6.60;70.30
80577;DHT22;69937;52.420;10.538;2024-03-25T08:51:23;6.70;69.40
80577;DHT22;69937;52.420;10.538;2024-03-25T08:56:24;6.80;69.10
80577;DHT22;69937;52.420;10.538;2024-03-25T09:01:24;6.90;69.10
80577;DHT22;69937;52.420;10.538;2024-03-25T09:06:27;7.10;68.20
80577;DHT22;69937;52.420;10.538;2024-03-25T09:11:28;7.20;66.80
80577;DHT22;69937;52.420;10.538;2024-03-25T09:16:28;7.20;66.60
80577;DHT22;69937;52.420;10.538;2024-03-25T09:21:29;7.40;67.00
80577;DHT22;69937;52.420;10.538;2024-03-25T09:26:30;7.30;66.70
80577;DHT22;69937;52.420;10.538;2024-03-25T09:31:31;7.20;68.40
80577;DHT22;69937;52.420;10.538;2024-03-25T09:36:31;7.20;68.20
80577;DHT22;69937;52.420;10.538;2024-03-25T09:41:35;7.30;67.70
80577;DHT22;69937;52.420;10.538;2024-03-25T09:46:37;7.60;67.50
80577;DHT22;69937;52.420;10.538;2024-03-25T09:51:37;8.20;65.90
80577;DHT22;69937;52.420;10.538;2024-03-25T09:56:39;8.80;63.70
80577;DHT22;69937;52.420;10.538;2024-03-25T10:01:39;9.00;61.30
80577;DHT22;69937;52.420;10.538;2024-03-25T10:06:40;9.00;60.80
80577;DHT22;69937;52.420;10.538;2024-03-25T10:11:40;9.00;60.90
80577;DHT22;69937;52.420;10.538;2024-03-25T10:16:41;8.90;59.00
80577;DHT22;69937;52.420;10.538;2024-03-25T10:21:42;8.80;57.50
80577;DHT22;69937;52.420;10.538;2024-03-25T10:26:43;8.70;55.90
80577;DHT22;69937;52.420;10.538;2024-03-25T10:31:43;8.70;58.00
80577;DHT22;69937;52.420;10.538;2024-03-25T10:36:44;8.60;56.20
80577;DHT22;69937;52.420;10.538;2024-03-25T10:41:45;8.50;56.70
80577;DHT22;69937;52.420;10.538;2024-03-25T10:46:46;8.50;56.80
80577;DHT22;69937;52.420;10.538;2024-03-25T10:51:48;8.50;57.50
80577;DHT22;69937;52.420;10.538;2024-03-25T10:56:50;8.40;57.30
80577;DHT22;69937;52.420;10.538;2024-03-25T11:01:52;8.20;59.10
80577;DHT22;69937;52.420;10.538;2024-03-25T11:06:53;8.40;58.60
80577;DHT22;69937;52.420;10.538;2024-03-25T11:11:53;9.00;56.20
80577;DHT22;69937;52.420;10.538;2024-03-25T11:16:57;9.10;54.80
80577;DHT22;69937;52.420;10.538;2024-03-25T11:22:08;9.10;55.00
80577;DHT22;69937;52.420;10.538;2024-03-25T11:27:10;9.00;55.90
80577;DHT22;69937;52.420;10.538;2024-03-25T11:32:10;9.10;55.50
80577;DHT22;69937;52.420;10.538;2024-03-25T11:37:11;9.20;55.60
80577;DHT22;69937;52.420;10.538;2024-03-25T11:42:13;9.40;55.00
80577;DHT22;69937;52.420;10.538;2024-03-25T11:47:14;9.40;54.00
80577;DHT22;69937;52.420;10.538;2024-03-25T11:52:15;9.40;55.20
80577;DHT22;69937;52.420;10.538;2024-03-25T11:57:16;9.20;54.60
80577;DHT22;69937;52.420;10.538;2024-03-25T12:02:17;9.20;54.10
80577;DHT22;69937;52.420;10.538;2024-03-25T12:07:18;9.10;55.40
80577;DHT22;69937;52.420;10.538;2024-03-25T12:12:19;8.90;56.20
80577;DHT22;69937;52.420;10.538;2024-03-25T12:17:20;8.90;58.50
80577;DHT22;69937;52.420;10.538;2024-03-25T12:22:21;9.20;59.00
80577;DHT22;69937;52.420;10.538;2024-03-25T12:27:21;9.60;54.80
80577;DHT22;69937;52.420;10.538;2024-03-25T12:32:22;10.00;54.10
80577;DHT22;69937;52.420;10.538;2024-03-25T12:37:31;10.30;53.80
80577;DHT22;69937;52.420;10.538;2024-03-25T12:42:32;10.80;50.50
80577;DHT22;69937;52.420;10.538;2024-03-25T12:47:33;11.50;48.90
80577;DHT22;69937;52.420;10.538;2024-03-25T12:52:34;11.50;48.80
80577;DHT22;69937;52.420;10.538;2024-03-25T12:57:35;11.10;50.10
80577;DHT22;69937;52.420;10.538;2024-03-25T13:02:35;10.70;50.50
80577;DHT22;69937;52.420;10.538;2024-03-25T13:07:36;10.40;51.00
80577;DHT22;69937;52.420;10.538;2024-03-25T13:12:37;10.30;52.30
80577;DHT22;69937;52.420;10.538;2024-03-25T13:17:37;10.70;53.00
80577;DHT22;69937;52.420;10.538;2024-03-25T13:22:38;10.90;51.80
80577;DHT22;69937;52.420;10.538;2024-03-25T13:27:39;10.70;51.00
80577;DHT22;69937;52.420;10.538;2024-03-25T13:32:40;10.50;52.10
80577;DHT22;69937;52.420;10.538;2024-03-25T13:37:40;10.50;52.70
80577;DHT22;69937;52.420;10.538;2024-03-25T13:42:41;10.20;51.80
80577;DHT22;69937;52.420;10.538;2024-03-25T13:47:41;10.40;51.90
80577;DHT22;69937;52.420;10.538;2024-03-25T13:52:42;10.90;51.60
80577;DHT22;69937;52.420;10.538;2024-03-25T13:57:44;11.50;49.50
80577;DHT22;69937;52.420;10.538;2024-03-25T14:02:44;11.30;49.20
80577;DHT22;69937;52.420;10.538;2024-03-25T14:07:45;10.90;49.80
80577;DHT22;69937;52.420;10.538;2024-03-25T14:12:46;10.50;50.60
80577;DHT22;69937;52.420;10.538;2024-03-25T14:17:46;10.40;50.40
80577;DHT22;69937;52.420;10.538;2024-03-25T14:22:47;11.10;49.70
80577;DHT22;69937;52.420;10.538;2024-03-25T14:27:47;11.90;49.40
80577;DHT22;69937;52.420;10.538;2024-03-25T14:32:49;12.30;47.80
80577;DHT22;69937;52.420;10.538;2024-03-25T14:37:49;12.50;48.20
80577;DHT22;69937;52.420;10.538;2024-03-25T14:42:50;12.90;48.00
80577;DHT22;69937;52.420;10.538;2024-03-25T14:47:50;13.70;46.10
80577;DHT22;69937;52.420;10.538;2024-03-25T14:52:51;14.20;45.20
80577;DHT22;69937;52.420;10.538;2024-03-25T14:57:51;14.40;43.90
80577;DHT22;69937;52.420;10.538;2024-03-25T15:02:52;14.70;43.70
80577;DHT22;69937;52.420;10.538;2024-03-25T15:07:53;14.80;44.40
80577;DHT22;69937;52.420;10.538;2024-03-25T15:12:54;14.50;44.80
80577;DHT22;69937;52.420;10.538;2024-03-25T15:17:54;14.10;44.30
80577;DHT22;69937;52.420;10.538;2024-03-25T15:22:55;13.50;44.10
80577;DHT22;69937;52.420;10.538;2024-03-25T15:27:55;13.10;45.80
80577;DHT22;69937;52.420;10.538;2024-03-25T15:32:56;12.70;46.20
80577;DHT22;69937;52.420;10.538;2024-03-25T15:37:57;12.60;45.60
80577;DHT22;69937;52.420;10.538;2024-03-25T15:42:59;13.00;47.00
80577;DHT22;69937;52.420;10.538;2024-03-25T15:48:01;13.70;44.70
80577;DHT22;69937;52.420;10.538;2024-03-25T15:53:04;13.80;43.70
80577;DHT22;69937;52.420;10.538;2024-03-25T15:58:04;13.40;44.10
80577;DHT22;69937;52.420;10.538;2024-03-25T16:03:05;13.10;44.40
80577;DHT22;69937;52.420;10.538;2024-03-25T16:08:06;12.70;44.70
80577;DHT22;69937;52.420;10.538;2024-03-25T16:13:07;12.50;46.10
80577;DHT22;69937;52.420;10.538;2024-03-25T16:18:07;12.30;45.20
80577;DHT22;69937;52.420;10.538;2024-03-25T16:23:08;12.00;45.80
80577;DHT22;69937;52.420;10.538;2024-03-25T16:28:09;11.50;47.20
80577;DHT22;69937;52.420;10.538;2024-03-25T16:33:09;11.40;46.30
80577;DHT22;69937;52.420;10.538;2024-03-25T16:38:10;11.20;47.20
80577;DHT22;69937;52.420;10.538;2024-03-25T16:43:10;11.00;48.20
80577;DHT22;69937;52.420;10.538;2024-03-25T16:48:11;10.80;48.10
80577;DHT22;69937;52.420;10.538;2024-03-25T16:53:12;10.60;48.50
80577;DHT22;69937;52.420;10.538;2024-03-25T16:58:14;10.40;48.70
80577;DHT22;69937;52.420;10.538;2024-03-25T17:03:14;10.30;49.80
80577;DHT22;69937;52.420;10.538;2024-03-25T17:08:15;10.10;50.40
80577;DHT22;69937;52.420;10.538;2024-03-25T17:13:16;10.00;51.30
80577;DHT22;69937;52.420;10.538;2024-03-25T17:18:16;9.80;52.70
80577;DHT22;69937;52.420;10.538;2024-03-25T17:23:17;9.60;53.30
80577;DHT22;69937;52.420;10.538;2024-03-25T17:28:18;9.40;54.70
80577;DHT22;69937;52.420;10.538;2024-03-25T17:33:19;9.30;55.50
80577;DHT22;69937;52.420;10.538;2024-03-25T17:38:19;9.00;56.40
80577;DHT22;69937;52.420;10.538;2024-03-25T17:43:20;8.60;58.60
80577;DHT22;69937;52.420;10.538;2024-03-25T17:48:21;8.30;60.60
80577;DHT22;69937;52.420;10.538;2024-03-25T17:53:22;8.00;61.40
80577;DHT22;69937;52.420;10.538;2024-03-25T17:58:22;7.70;61.80
80577;DHT22;69937;52.420;10.538;2024-03-25T18:03:23;7.50;60.80
80577;DHT22;69937;52.420;10.538;2024-03-25T18:08:24;7.40;60.40
80577;DHT22;69937;52.420;10.538;2024-03-25T18:13:24;7.20;60.30
80577;DHT22;69937;52.420;10.538;2024-03-25T18:18:25;7.20;60.40
80577;DHT22;69937;52.420;10.538;2024-03-25T18:23:25;7.00;60.40
80577;DHT22;69937;52.420;10.538;2024-03-25T18:28:26;6.90;60.50
80577;DHT22;69937;52.420;10.538;2024-03-25T18:33:27;6.80;61.40
80577;DHT22;69937;52.420;10.538;2024-03-25T18:38:27;6.80;62.10
80577;DHT22;69937;52.420;10.538;2024-03-25T18:43:28;6.70;62.60
80577;DHT22;69937;52.420;10.538;2024-03-25T18:48:28;6.50;62.60
80577;DHT22;69937;52.420;10.538;2024-03-25T18:53:29;6.50;63.40
80577;DHT22;69937;52.420;10.538;2024-03-25T18:58:30;6.40;63.70
80577;DHT22;69937;52.420;10.538;2024-03-25T19:03:30;6.20;64.40
80577;DHT22;69937;52.420;10.538;2024-03-25T19:08:31;6.10;66.00
80577;DHT22;69937;52.420;10.538;2024-03-25T19:13:33;5.90;65.40
80577;DHT22;69937;52.420;10.538;2024-03-25T19:18:33;5.80;65.90
80577;DHT22;69937;52.420;10.538;2024-03-25T19:23:34;5.70;66.10
80577;DHT22;69937;52.420;10.538;2024-03-25T19:28:34;5.60;66.10
80577;DHT22;69937;52.420;10.538;2024-03-25T19:33:35;5.50;65.60
80577;DHT22;69937;52.420;10.538;2024-03-25T19:38:35;5.50;65.80
80577;DHT22;69937;52.420;10.538;2024-03-25T19:43:36;5.30;66.20
80577;DHT22;69937;52.420;10.538;2024-03-25T19:48:37;5.20;66.60
80577;DHT22;69937;52.420;10.538;2024-03-25T19:53:38;5.00;66.90
80577;DHT22;69937;52.420;10.538;2024-03-25T19:58:39;5.00;67.00
80577;DHT22;69937;52.420;10.538;2024-03-25T20:03:39;5.00;67.00
80577;DHT22;69937;52.420;10.538;2024-03-25T20:08:40;4.90;67.10
80577;DHT22;69937;52.420;10.538;2024-03-25T20:13:40;4.80;67.00
80577;DHT22;69937;52.420;10.538;2024-03-25T20:18:41;4.70;67.10
80577;DHT22;69937;52.420;10.538;2024-03-25T20:23:42;4.70;67.90
80577;DHT22;69937;52.420;10.538;2024-03-25T20:28:42;4.70;67.90
80577;DHT22;69937;52.420;10.538;2024-03-25T20:33:43;4.50;67.50
80577;DHT22;69937;52.420;10.538;2024-03-25T20:38:43;4.50;67.40
80577;DHT22;69937;52.420;10.538;2024-03-25T20:43:44;4.50;67.40
80577;DHT22;69937;52.420;10.538;2024-03-25T20:48:46;4.40;67.30
80577;DHT22;69937;52.420;10.538;2024-03-25T20:53:47;4.30;67.80
80577;DHT22;69937;52.420;10.538;2024-03-25T20:58:47;4.20;68.00
80577;DHT22;69937;52.420;10.538;2024-03-25T21:03:49;4.00;68.40
80577;DHT22;69937;52.420;10.538;2024-03-25T21:08:49;3.90;68.70
80577;DHT22;69937;52.420;10.538;2024-03-25T21:13:50;3.80;69.10
80577;DHT22;69937;52.420;10.538;2024-03-25T21:18:50;3.80;69.40
80577;DHT22;69937;52.420;10.538;2024-03-25T21:23:51;3.70;69.20
80577;DHT22;69937;52.420;10.538;2024-03-25T21:28:52;3.70;69.00
80577;DHT22;69937;52.420;10.538;2024-03-25T21:33:52;3.70;69.00
80577;DHT22;69937;52.420;10.538;2024-03-25T21:38:53;3.60;68.90
80577;DHT22;69937;52.420;10.538;2024-03-25T21:43:53;3.60;69.00
80577;DHT22;69937;52.420;10.538;2024-03-25T21:48:54;3.50;68.80
80577;DHT22;69937;52.420;10.538;2024-03-25T21:53:54;3.50;68.70
80577;DHT22;69937;52.420;10.538;2024-03-25T21:58:55;3.50;68.90
80577;DHT22;69937;52.420;10.538;2024-03-25T22:03:56;3.40;69.30
80577;DHT22;69937;52.420;10.538;2024-03-25T22:08:56;3.30;69.40
80577;DHT22;69937;52.420;10.538;2024-03-25T22:13:57;3.20;69.50
80577;DHT22;69937;52.420;10.538;2024-03-25T22:18:57;3.30;69.00
80577;DHT22;69937;52.420;10.538;2024-03-25T22:23:58;3.30;69.00
80577;DHT22;69937;52.420;10.538;2024-03-25T22:28:59;3.20;69.00
80577;DHT22;69937;52.420;10.538;2024-03-25T22:34:02;3.20;68.80
80577;DHT22;69937;52.420;10.538;2024-03-25T22:39:03;3.20;68.70
80577;DHT22;69937;52.420;10.538;2024-03-25T22:44:04;3.10;68.90
80577;DHT22;69937;52.420;10.538;2024-03-25T22:49:04;3.00;69.20
80577;DHT22;69937;52.420;10.538;2024-03-25T22:54:05;3.00;69.30
80577;DHT22;69937;52.420;10.538;2024-03-25T22:59:06;3.00;69.00
80577;DHT22;69937;52.420;10.538;2024-03-25T23:04:07;2.90;68.90
80577;DHT22;69937;52.420;10.538;2024-03-25T23:09:07;2.90;69.20
80577;DHT22;69937;52.420;10.538;2024-03-25T23:14:08;2.80;69.50
80577;DHT22;69937;52.420;10.538;2024-03-25T23:19:09;2.70;69.70
80577;DHT22;69937;52.420;10.538;2024-03-25T23:24:11;2.70;70.10
80577;DHT22;69937;52.420;10.538;2024-03-25T23:29:11;2.70;70.30
80577;DHT22;69937;52.420;10.538;2024-03-25T23:34:13;2.70;70.30
80577;DHT22;69937;52.420;10.538;2024-03-25T23:39:13;2.50;70.40
80577;DHT22;69937;52.420;10.538;2024-03-25T23:44:14;2.50;70.70
80577;DHT22;69937;52.420;10.538;2024-03-25T23:49:18;2.50;70.70
80577;DHT22;69937;52.420;10.538;2024-03-25T23:54:18;2.50;70.90
80577;DHT22;69937;52.420;10.538;2024-03-25T23:59:19;2.50;70.70
